sensor_id;sensor_type;location;lat;lon;timestamp;temperature;humidity
3194;DHT22;1608;50.860;13.466;2022-09-09T00:01:50;15.80;99.90
3194;DHT22;1608;50.860;13.466;2022-09-09T00:04:24;15.80;99.90
3194;DHT22;1608;50.860;13.466;2022-09-09T00:06:59;15.90;99.90
3194;DHT22;1608;50.860;13.466;2022-09-09T00:09:29;15.80;99.90
3194;DHT22;1608;50.860;13.466;2022-09-09T00:14:34;15.80;99.90
3194;DHT22;1608;50.860;13.466;2022-09-09T00:17:07;15.80;99.90
3194;DHT22;1608;50.860;13.466;2022-09-09T00:19:41;15.80;99.90
3194;DHT22;1608;50.860;13.466;2022-09-09T00:22:15;15.80;99.90
3194;DHT22;1608;50.860;13.466;2022-09-09T00:24:44;15.80;99.90
3194;DHT22;1608;50.860;13.466;2022-09-09T00:27:19;15.70;99.90
3194;DHT22;1608;50.860;13.466;2022-09-09T00:29:53;15.80;99.90
3194;DHT22;1608;50.860;13.466;2022-09-09T00:32:22;15.80;99.90
3194;DHT22;1608;50.860;13.466;2022-09-09T00:34:53;15.70;99.90
3194;DHT22;1608;50.860;13.466;2022-09-09T00:37:22;15.70;99.90
3194;DHT22;1608;50.860;13.466;2022-09-09T00:39:52;15.70;99.90
3194;DHT22;1608;50.860;13.466;2022-09-09T00:42:25;15.70;99.90
3194;DHT22;1608;50.860;13.466;2022-09-09T00:44:59;15.60;99.90
3194;DHT22;1608;50.860;13.466;2022-09-09T00:47:39;15.60;99.90
3194;DHT22;1608;50.860;13.466;2022-09-09T00:50:28;15.60;99.90
3194;DHT22;1608;50.860;13.466;2022-09-09T00:53:07;15.50;99.90
3194;DHT22;1608;50.860;13.466;2022-09-09T00:55:42;15.50;99.90
3194;DHT22;1608;50.860;13.466;2022-09-09T00:58:10;15.40;99.90
3194;DHT22;1608;50.860;13.466;2022-09-09T01:00:43;15.50;99.90
3194;DHT22;1608;50.860;13.466;2022-09-09T01:03:30;15.40;99.90
3194;DHT22;1608;50.860;13.466;2022-09-09T01:06:02;15.30;99.90
3194;DHT22;1608;50.860;13.466;2022-09-09T01:08:43;15.30;99.90
3194;DHT22;1608;50.860;13.466;2022-09-09T01:11:20;15.30;99.90
3194;DHT22;1608;50.860;13.466;2022-09-09T01:13:52;15.30;99.90
3194;DHT22;1608;50.860;13.466;2022-09-09T01:16:21;15.40;99.90
3194;DHT22;1608;50.860;13.466;2022-09-09T01:18:51;15.40;99.90
3194;DHT22;1608;50.860;13.466;2022-09-09T01:21:23;15.40;99.90
3194;DHT22;1608;50.860;13.466;2022-09-09T01:24:08;15.40;99.90
3194;DHT22;1608;50.860;13.466;2022-09-09T01:26:43;15.40;99.90
3194;DHT22;1608;50.860;13.466;2022-09-09T01:29:13;15.40;99.90
3194;DHT22;1608;50.860;13.466;2022-09-09T01:31:42;15.30;99.90
3194;DHT22;1608;50.860;13.466;2022-09-09T01:34:11;15.30;99.90
3194;DHT22;1608;50.860;13.466;2022-09-09T01:36:42;15.20;99.90
3194;DHT22;1608;50.860;13.466;2022-09-09T01:39:09;15.20;99.90
3194;DHT22;1608;50.860;13.466;2022-09-09T01:41:37;15.20;99.90
3194;DHT22;1608;50.860;13.466;2022-09-09T01:44:06;15.20;99.90
3194;DHT22;1608;50.860;13.466;2022-09-09T01:46:34;15.10;99.90
3194;DHT22;1608;50.860;13.466;2022-09-09T01:49:02;15.10;99.90
3194;DHT22;1608;50.860;13.466;2022-09-09T01:51:30;15.00;99.90
3194;DHT22;1608;50.860;13.466;2022-09-09T01:53:57;14.90;99.90
3194;DHT22;1608;50.860;13.466;2022-09-09T01:56:32;14.90;99.90
3194;DHT22;1608;50.860;13.466;2022-09-09T01:59:14;14.90;99.90
3194;DHT22;1608;50.860;13.466;2022-09-09T02:01:57;14.90;99.90
3194;DHT22;1608;50.860;13.466;2022-09-09T02:04:38;14.90;99.90
3194;DHT22;1608;50.860;13.466;2022-09-09T02:07:12;15.00;99.90
3194;DHT22;1608;50.860;13.466;2022-09-09T02:09:44;14.90;99.90
3194;DHT22;1608;50.860;13.466;2022-09-09T02:12:15;14.80;99.90
3194;DHT22;1608;50.860;13.466;2022-09-09T02:14:49;14.80;99.90
3194;DHT22;1608;50.860;13.466;2022-09-09T02:17:20;14.80;99.90
3194;DHT22;1608;50.860;13.466;2022-09-09T02:19:52;14.80;99.90
3194;DHT22;1608;50.860;13.466;2022-09-09T02:22:22;14.40;99.90
3194;DHT22;1608;50.860;13.466;2022-09-09T02:24:51;14.70;99.90
3194;DHT22;1608;50.860;13.466;2022-09-09T02:27:20;14.60;99.90
3194;DHT22;1608;50.860;13.466;2022-09-09T02:29:51;14.60;99.90
3194;DHT22;1608;50.860;13.466;2022-09-09T02:32:22;14.50;99.90
3194;DHT22;1608;50.860;13.466;2022-09-09T02:34:52;14.60;99.90
3194;DHT22;1608;50.860;13.466;2022-09-09T02:37:24;14.50;99.90
3194;DHT22;1608;50.860;13.466;2022-09-09T02:39:54;14.50;99.90
3194;DHT22;1608;50.860;13.466;2022-09-09T02:42:21;14.50;99.90
3194;DHT22;1608;50.860;13.466;2022-09-09T02:44:50;14.50;99.90
3194;DHT22;1608;50.860;13.466;2022-09-09T02:47:25;14.50;99.90
3194;DHT22;1608;50.860;13.466;2022-09-09T02:50:12;14.50;99.90
3194;DHT22;1608;50.860;13.466;2022-09-09T02:52:46;14.50;99.90
3194;DHT22;1608;50.860;13.466;2022-09-09T02:55:20;14.50;99.90
3194;DHT22;1608;50.860;13.466;2022-09-09T02:57:50;14.50;99.90
3194;DHT22;1608;50.860;13.466;2022-09-09T03:00:24;14.40;99.90
3194;DHT22;1608;50.860;13.466;2022-09-09T03:02:52;14.50;99.90
3194;DHT22;1608;50.860;13.466;2022-09-09T03:05:19;14.50;99.90
3194;DHT22;1608;50.860;13.466;2022-09-09T03:07:46;14.50;99.90
3194;DHT22;1608;50.860;13.466;2022-09-09T03:10:13;14.50;99.90
3194;DHT22;1608;50.860;13.466;2022-09-09T03:12:40;14.40;99.90
3194;DHT22;1608;50.860;13.466;2022-09-09T03:15:07;14.40;99.90
3194;DHT22;1608;50.860;13.466;2022-09-09T03:17:36;14.40;99.90
3194;DHT22;1608;50.860;13.466;2022-09-09T03:20:03;14.40;99.90
3194;DHT22;1608;50.860;13.466;2022-09-09T03:22:30;14.40;99.90
3194;DHT22;1608;50.860;13.466;2022-09-09T03:24:57;14.40;99.90
3194;DHT22;1608;50.860;13.466;2022-09-09T03:27:24;14.40;99.90
3194;DHT22;1608;50.860;13.466;2022-09-09T03:29:51;14.30;99.90
3194;DHT22;1608;50.860;13.466;2022-09-09T03:32:18;14.40;99.90
3194;DHT22;1608;50.860;13.466;2022-09-09T03:34:49;14.40;99.90
3194;DHT22;1608;50.860;13.466;2022-09-09T03:37:16;14.40;99.90
3194;DHT22;1608;50.860;13.466;2022-09-09T03:39:43;14.40;99.90
3194;DHT22;1608;50.860;13.466;2022-09-09T03:42:12;14.40;99.90
3194;DHT22;1608;50.860;13.466;2022-09-09T03:44:39;14.40;99.90
3194;DHT22;1608;50.860;13.466;2022-09-09T03:47:07;14.40;99.90
3194;DHT22;1608;50.860;13.466;2022-09-09T03:49:34;14.40;99.90
3194;DHT22;1608;50.860;13.466;2022-09-09T03:52:02;14.40;99.90
3194;DHT22;1608;50.860;13.466;2022-09-09T03:54:28;14.40;99.90
3194;DHT22;1608;50.860;13.466;2022-09-09T03:56:55;14.40;99.90
3194;DHT22;1608;50.860;13.466;2022-09-09T03:59:23;14.40;99.90
3194;DHT22;1608;50.860;13.466;2022-09-09T04:01:50;14.40;99.90
3194;DHT22;1608;50.860;13.466;2022-09-09T04:04:17;14.40;99.90
3194;DHT22;1608;50.860;13.466;2022-09-09T04:06:45;14.50;99.90
3194;DHT22;1608;50.860;13.466;2022-09-09T04:09:14;14.50;99.90
3194;DHT22;1608;50.860;13.466;2022-09-09T04:11:41;14.60;99.90
3194;DHT22;1608;50.860;13.466;2022-09-09T04:14:08;14.60;99.90
3194;DHT22;1608;50.860;13.466;2022-09-09T04:16:35;14.60;99.90
3194;DHT22;1608;50.860;13.466;2022-09-09T04:19:02;14.70;99.90
3194;DHT22;1608;50.860;13.466;2022-09-09T04:21:30;14.70;99.90
3194;DHT22;1608;50.860;13.466;2022-09-09T04:23:56;14.70;99.90
3194;DHT22;1608;50.860;13.466;2022-09-09T04:26:24;14.90;99.90
3194;DHT22;1608;50.860;13.466;2022-09-09T04:28:51;14.90;99.90
3194;DHT22;1608;50.860;13.466;2022-09-09T04:31:19;15.00;99.90
3194;DHT22;1608;50.860;13.466;2022-09-09T04:33:48;15.10;99.90
3194;DHT22;1608;50.860;13.466;2022-09-09T04:36:15;15.10;99.90
3194;DHT22;1608;50.860;13.466;2022-09-09T04:38:43;15.10;99.90
3194;DHT22;1608;50.860;13.466;2022-09-09T04:41:10;16.70;99.90
3194;DHT22;1608;50.860;13.466;2022-09-09T04:43:39;15.10;99.90
3194;DHT22;1608;50.860;13.466;2022-09-09T04:46:06;15.10;99.90
3194;DHT22;1608;50.860;13.466;2022-09-09T04:48:33;15.10;99.90
3194;DHT22;1608;50.860;13.466;2022-09-09T04:51:01;15.20;99.90
3194;DHT22;1608;50.860;13.466;2022-09-09T04:53:29;15.20;99.90
3194;DHT22;1608;50.860;13.466;2022-09-09T04:56:02;15.30;99.90
3194;DHT22;1608;50.860;13.466;2022-09-09T04:58:28;15.30;99.90
3194;DHT22;1608;50.860;13.466;2022-09-09T05:01:06;15.40;99.90
3194;DHT22;1608;50.860;13.466;2022-09-09T05:03:33;15.50;99.90
3194;DHT22;1608;50.860;13.466;2022-09-09T05:06:04;15.50;99.90
3194;DHT22;1608;50.860;13.466;2022-09-09T05:08:31;15.50;99.90
3194;DHT22;1608;50.860;13.466;2022-09-09T05:10:58;15.40;99.90
3194;DHT22;1608;50.860;13.466;2022-09-09T05:13:25;15.40;99.90
3194;DHT22;1608;50.860;13.466;2022-09-09T05:15:53;15.40;99.90
3194;DHT22;1608;50.860;13.466;2022-09-09T05:18:21;15.50;99.90
3194;DHT22;1608;50.860;13.466;2022-09-09T05:20:48;15.50;99.90
3194;DHT22;1608;50.860;13.466;2022-09-09T05:23:16;15.60;99.90
3194;DHT22;1608;50.860;13.466;2022-09-09T05:25:43;15.70;99.90
3194;DHT22;1608;50.860;13.466;2022-09-09T05:28:12;15.70;99.90
3194;DHT22;1608;50.860;13.466;2022-09-09T05:30:38;15.80;99.90
3194;DHT22;1608;50.860;13.466;2022-09-09T05:33:05;16.00;99.90
3194;DHT22;1608;50.860;13.466;2022-09-09T05:35:36;16.10;99.90
3194;DHT22;1608;50.860;13.466;2022-09-09T05:38:03;16.20;99.90
3194;DHT22;1608;50.860;13.466;2022-09-09T05:40:30;16.30;99.90
3194;DHT22;1608;50.860;13.466;2022-09-09T05:43:00;16.40;99.90
3194;DHT22;1608;50.860;13.466;2022-09-09T05:45:27;16.40;99.90
3194;DHT22;1608;50.860;13.466;2022-09-09T05:47:54;16.50;99.90
3194;DHT22;1608;50.860;13.466;2022-09-09T05:50:20;16.50;99.90
3194;DHT22;1608;50.860;13.466;2022-09-09T05:52:49;16.60;99.90
3194;DHT22;1608;50.860;13.466;2022-09-09T05:55:15;16.70;99.90
3194;DHT22;1608;50.860;13.466;2022-09-09T05:57:48;16.80;99.90
3194;DHT22;1608;50.860;13.466;2022-09-09T06:00:15;16.90;99.90
3194;DHT22;1608;50.860;13.466;2022-09-09T06:02:42;16.90;99.90
3194;DHT22;1608;50.860;13.466;2022-09-09T06:05:09;17.00;99.90
3194;DHT22;1608;50.860;13.466;2022-09-09T06:07:36;17.20;99.90
3194;DHT22;1608;50.860;13.466;2022-09-09T06:10:05;17.30;99.90
3194;DHT22;1608;50.860;13.466;2022-09-09T06:15:05;17.60;99.90
3194;DHT22;1608;50.860;13.466;2022-09-09T06:17:34;17.60;99.90
3194;DHT22;1608;50.860;13.466;2022-09-09T06:20:02;17.60;99.90
3194;DHT22;1608;50.860;13.466;2022-09-09T06:22:29;17.60;99.90
3194;DHT22;1608;50.860;13.466;2022-09-09T06:24:55;17.60;99.90
3194;DHT22;1608;50.860;13.466;2022-09-09T06:27:23;17.60;99.90
3194;DHT22;1608;50.860;13.466;2022-09-09T06:29:50;17.60;99.90
3194;DHT22;1608;50.860;13.466;2022-09-09T06:32:17;17.60;99.90
3194;DHT22;1608;50.860;13.466;2022-09-09T06:34:43;17.60;99.90
3194;DHT22;1608;50.860;13.466;2022-09-09T06:37:10;17.80;99.90
3194;DHT22;1608;50.860;13.466;2022-09-09T06:39:37;17.80;99.90
3194;DHT22;1608;50.860;13.466;2022-09-09T06:42:04;18.00;99.90
3194;DHT22;1608;50.860;13.466;2022-09-09T06:44:33;18.00;99.90
3194;DHT22;1608;50.860;13.466;2022-09-09T06:47:00;18.10;99.90
3194;DHT22;1608;50.860;13.466;2022-09-09T06:49:26;16.90;99.90
3194;DHT22;1608;50.860;13.466;2022-09-09T06:51:53;18.40;99.90
3194;DHT22;1608;50.860;13.466;2022-09-09T06:54:20;18.60;99.90
3194;DHT22;1608;50.860;13.466;2022-09-09T06:56:47;18.90;99.90
3194;DHT22;1608;50.860;13.466;2022-09-09T06:59:15;19.10;99.90
3194;DHT22;1608;50.860;13.466;2022-09-09T07:01:44;19.30;99.90
3194;DHT22;1608;50.860;13.466;2022-09-09T07:04:12;19.60;99.90
3194;DHT22;1608;50.860;13.466;2022-09-09T07:06:40;19.80;99.90
3194;DHT22;1608;50.860;13.466;2022-09-09T07:09:09;20.00;99.90
3194;DHT22;1608;50.860;13.466;2022-09-09T07:11:38;20.10;99.90
3194;DHT22;1608;50.860;13.466;2022-09-09T07:14:06;20.20;99.90
3194;DHT22;1608;50.860;13.466;2022-09-09T07:16:34;20.30;99.90
3194;DHT22;1608;50.860;13.466;2022-09-09T07:19:03;20.30;99.90
3194;DHT22;1608;50.860;13.466;2022-09-09T07:21:31;20.40;99.90
3194;DHT22;1608;50.860;13.466;2022-09-09T07:23:59;20.30;99.90
3194;DHT22;1608;50.860;13.466;2022-09-09T07:26:28;20.20;99.90
3194;DHT22;1608;50.860;13.466;2022-09-09T07:28:55;20.20;99.90
3194;DHT22;1608;50.860;13.466;2022-09-09T07:31:24;20.20;99.90
3194;DHT22;1608;50.860;13.466;2022-09-09T07:33:51;20.40;99.90
3194;DHT22;1608;50.860;13.466;2022-09-09T07:36:22;20.40;99.90
3194;DHT22;1608;50.860;13.466;2022-09-09T07:38:50;20.50;99.90
3194;DHT22;1608;50.860;13.466;2022-09-09T07:41:20;20.50;99.90
3194;DHT22;1608;50.860;13.466;2022-09-09T07:43:48;20.40;99.90
3194;DHT22;1608;50.860;13.466;2022-09-09T07:46:17;20.30;99.90
3194;DHT22;1608;50.860;13.466;2022-09-09T07:48:45;20.20;99.90
3194;DHT22;1608;50.860;13.466;2022-09-09T07:51:14;20.10;99.90
3194;DHT22;1608;50.860;13.466;2022-09-09T07:53:43;20.10;99.90
3194;DHT22;1608;50.860;13.466;2022-09-09T07:56:13;20.20;99.90
3194;DHT22;1608;50.860;13.466;2022-09-09T07:58:44;20.20;99.90
3194;DHT22;1608;50.860;13.466;2022-09-09T08:01:13;20.30;99.90
3194;DHT22;1608;50.860;13.466;2022-09-09T08:03:41;20.30;99.90
3194;DHT22;1608;50.860;13.466;2022-09-09T08:06:09;20.50;99.90
3194;DHT22;1608;50.860;13.466;2022-09-09T08:08:36;20.60;99.90
3194;DHT22;1608;50.860;13.466;2022-09-09T08:11:08;20.80;99.90
3194;DHT22;1608;50.860;13.466;2022-09-09T08:13:35;21.00;99.90
3194;DHT22;1608;50.860;13.466;2022-09-09T08:16:06;21.20;99.90
3194;DHT22;1608;50.860;13.466;2022-09-09T08:18:33;21.10;99.90
3194;DHT22;1608;50.860;13.466;2022-09-09T08:21:09;21.20;99.90
3194;DHT22;1608;50.860;13.466;2022-09-09T08:23:37;21.20;99.90
3194;DHT22;1608;50.860;13.466;2022-09-09T08:26:10;21.20;99.90
3194;DHT22;1608;50.860;13.466;2022-09-09T08:28:37;21.20;99.90
3194;DHT22;1608;50.860;13.466;2022-09-09T08:31:10;21.20;99.90
3194;DHT22;1608;50.860;13.466;2022-09-09T08:33:36;21.20;99.90
3194;DHT22;1608;50.860;13.466;2022-09-09T08:36:05;21.20;99.90
3194;DHT22;1608;50.860;13.466;2022-09-09T08:38:32;21.10;99.90
3194;DHT22;1608;50.860;13.466;2022-09-09T08:41:17;21.00;99.90
3194;DHT22;1608;50.860;13.466;2022-09-09T08:43:51;20.80;99.90
3194;DHT22;1608;50.860;13.466;2022-09-09T08:46:24;20.60;99.90
3194;DHT22;1608;50.860;13.466;2022-09-09T08:48:56;20.50;99.90
3194;DHT22;1608;50.860;13.466;2022-09-09T08:51:27;20.40;99.90
3194;DHT22;1608;50.860;13.466;2022-09-09T08:53:58;20.50;99.90
3194;DHT22;1608;50.860;13.466;2022-09-09T08:56:31;20.60;99.90
3194;DHT22;1608;50.860;13.466;2022-09-09T08:59:01;20.70;99.90
3194;DHT22;1608;50.860;13.466;2022-09-09T09:01:39;20.80;99.90
3194;DHT22;1608;50.860;13.466;2022-09-09T09:04:17;20.90;99.90
3194;DHT22;1608;50.860;13.466;2022-09-09T09:06:54;21.00;99.90
3194;DHT22;1608;50.860;13.466;2022-09-09T09:09:29;21.20;99.90
3194;DHT22;1608;50.860;13.466;2022-09-09T09:12:00;21.40;99.90
3194;DHT22;1608;50.860;13.466;2022-09-09T09:14:28;21.80;99.90
3194;DHT22;1608;50.860;13.466;2022-09-09T09:16:58;21.60;99.90
3194;DHT22;1608;50.860;13.466;2022-09-09T09:19:27;21.80;99.90
3194;DHT22;1608;50.860;13.466;2022-09-09T09:22:01;21.90;99.90
3194;DHT22;1608;50.860;13.466;2022-09-09T09:24:46;22.00;99.90
3194;DHT22;1608;50.860;13.466;2022-09-09T09:27:25;22.10;99.90
3194;DHT22;1608;50.860;13.466;2022-09-09T09:29:55;22.20;99.90
3194;DHT22;1608;50.860;13.466;2022-09-09T09:32:24;22.30;99.90
3194;DHT22;1608;50.860;13.466;2022-09-09T09:34:55;22.40;99.90
3194;DHT22;1608;50.860;13.466;2022-09-09T09:37:26;22.50;99.90
3194;DHT22;1608;50.860;13.466;2022-09-09T09:39:54;22.60;99.90
3194;DHT22;1608;50.860;13.466;2022-09-09T09:42:22;22.70;99.90
3194;DHT22;1608;50.860;13.466;2022-09-09T09:44:49;22.90;99.90
3194;DHT22;1608;50.860;13.466;2022-09-09T09:47:20;23.00;99.90
3194;DHT22;1608;50.860;13.466;2022-09-09T09:49:54;23.10;99.90
3194;DHT22;1608;50.860;13.466;2022-09-09T09:52:23;23.20;99.90
3194;DHT22;1608;50.860;13.466;2022-09-09T09:54:50;23.20;99.90
3194;DHT22;1608;50.860;13.466;2022-09-09T09:57:18;23.20;99.90
3194;DHT22;1608;50.860;13.466;2022-09-09T10:00:00;23.10;99.90
3194;DHT22;1608;50.860;13.466;2022-09-09T10:02:37;22.80;99.90
3194;DHT22;1608;50.860;13.466;2022-09-09T10:05:05;22.50;99.90
3194;DHT22;1608;50.860;13.466;2022-09-09T10:07:33;22.50;99.90
3194;DHT22;1608;50.860;13.466;2022-09-09T10:10:00;22.20;99.90
3194;DHT22;1608;50.860;13.466;2022-09-09T10:12:37;22.20;99.90
3194;DHT22;1608;50.860;13.466;2022-09-09T10:15:27;22.10;99.90
3194;DHT22;1608;50.860;13.466;2022-09-09T10:18:01;22.20;99.90
3194;DHT22;1608;50.860;13.466;2022-09-09T10:20:37;22.40;99.90
3194;DHT22;1608;50.860;13.466;2022-09-09T10:23:15;22.60;99.90
3194;DHT22;1608;50.860;13.466;2022-09-09T10:26:07;22.70;99.90
3194;DHT22;1608;50.860;13.466;2022-09-09T10:28:55;22.80;99.90
3194;DHT22;1608;50.860;13.466;2022-09-09T10:31:36;23.00;99.90
3194;DHT22;1608;50.860;13.466;2022-09-09T10:34:15;23.10;99.90
3194;DHT22;1608;50.860;13.466;2022-09-09T10:36:47;23.00;99.90
3194;DHT22;1608;50.860;13.466;2022-09-09T10:39:24;22.90;99.90
3194;DHT22;1608;50.860;13.466;2022-09-09T10:42:03;22.90;99.90
3194;DHT22;1608;50.860;13.466;2022-09-09T10:44:41;22.90;99.90
3194;DHT22;1608;50.860;13.466;2022-09-09T10:47:39;22.90;99.90
3194;DHT22;1608;50.860;13.466;2022-09-09T10:50:18;23.00;99.90
3194;DHT22;1608;50.860;13.466;2022-09-09T10:52:55;23.20;99.90
3194;DHT22;1608;50.860;13.466;2022-09-09T10:55:33;23.40;99.90
3194;DHT22;1608;50.860;13.466;2022-09-09T10:58:03;23.50;99.90
3194;DHT22;1608;50.860;13.466;2022-09-09T11:00:39;23.50;99.90
3194;DHT22;1608;50.860;13.466;2022-09-09T11:03:15;23.50;99.90
3194;DHT22;1608;50.860;13.466;2022-09-09T11:05:45;23.50;99.90
3194;DHT22;1608;50.860;13.466;2022-09-09T11:08:17;23.40;99.90
3194;DHT22;1608;50.860;13.466;2022-09-09T11:10:48;23.30;99.90
3194;DHT22;1608;50.860;13.466;2022-09-09T11:13:22;23.20;99.90
3194;DHT22;1608;50.860;13.466;2022-09-09T11:15:54;23.00;99.90
3194;DHT22;1608;50.860;13.466;2022-09-09T11:18:29;22.90;99.90
3194;DHT22;1608;50.860;13.466;2022-09-09T11:21:00;23.00;99.90
3194;DHT22;1608;50.860;13.466;2022-09-09T11:23:35;23.00;99.90
3194;DHT22;1608;50.860;13.466;2022-09-09T11:26:06;23.30;99.90
3194;DHT22;1608;50.860;13.466;2022-09-09T11:28:43;23.50;99.90
3194;DHT22;1608;50.860;13.466;2022-09-09T11:31:22;23.90;99.90
3194;DHT22;1608;50.860;13.466;2022-09-09T11:34:08;24.20;99.90
3194;DHT22;1608;50.860;13.466;2022-09-09T11:37:00;24.10;99.20
3194;DHT22;1608;50.860;13.466;2022-09-09T11:40:08;23.90;97.40
3194;DHT22;1608;50.860;13.466;2022-09-09T11:42:40;23.60;97.10
3194;DHT22;1608;50.860;13.466;2022-09-09T11:45:21;23.30;99.10
3194;DHT22;1608;50.860;13.466;2022-09-09T11:47:53;23.20;99.50
3194;DHT22;1608;50.860;13.466;2022-09-09T11:50:31;23.10;99.10
3194;DHT22;1608;50.860;13.466;2022-09-09T11:53:20;22.80;99.90
3194;DHT22;1608;50.860;13.466;2022-09-09T11:55:59;22.90;98.40
3194;DHT22;1608;50.860;13.466;2022-09-09T11:58:26;23.10;99.10
3194;DHT22;1608;50.860;13.466;2022-09-09T12:00:54;23.20;99.90
3194;DHT22;1608;50.860;13.466;2022-09-09T12:03:40;23.20;99.60
3194;DHT22;1608;50.860;13.466;2022-09-09T12:06:13;23.20;99.70
3194;DHT22;1608;50.860;13.466;2022-09-09T12:08:43;23.20;99.90
3194;DHT22;1608;50.860;13.466;2022-09-09T12:11:11;23.20;99.90
3194;DHT22;1608;50.860;13.466;2022-09-09T12:16:30;23.20;99.10
3194;DHT22;1608;50.860;13.466;2022-09-09T12:19:15;23.30;99.90
3194;DHT22;1608;50.860;13.466;2022-09-09T12:21:51;23.50;99.90
3194;DHT22;1608;50.860;13.466;2022-09-09T12:24:27;23.70;99.90
3194;DHT22;1608;50.860;13.466;2022-09-09T12:26:59;23.90;99.90
3194;DHT22;1608;50.860;13.466;2022-09-09T12:29:34;24.10;99.90
3194;DHT22;1608;50.860;13.466;2022-09-09T12:32:07;24.20;99.90
3194;DHT22;1608;50.860;13.466;2022-09-09T12:34:39;24.20;99.10
3194;DHT22;1608;50.860;13.466;2022-09-09T12:37:15;24.20;99.00
3194;DHT22;1608;50.860;13.466;2022-09-09T12:39:45;24.10;99.40
3194;DHT22;1608;50.860;13.466;2022-09-09T12:42:19;24.00;99.90
3194;DHT22;1608;50.860;13.466;2022-09-09T12:44:57;23.90;99.00
3194;DHT22;1608;50.860;13.466;2022-09-09T12:47:30;23.80;99.70
3194;DHT22;1608;50.860;13.466;2022-09-09T12:50:00;23.80;99.90
3194;DHT22;1608;50.860;13.466;2022-09-09T12:52:30;23.90;99.20
3194;DHT22;1608;50.860;13.466;2022-09-09T12:55:00;23.70;98.90
3194;DHT22;1608;50.860;13.466;2022-09-09T12:57:33;23.60;98.60
3194;DHT22;1608;50.860;13.466;2022-09-09T13:00:10;23.40;98.20
3194;DHT22;1608;50.860;13.466;2022-09-09T13:02:46;23.40;99.10
3194;DHT22;1608;50.860;13.466;2022-09-09T13:05:18;23.30;99.50
3194;DHT22;1608;50.860;13.466;2022-09-09T13:07:47;23.40;99.80
3194;DHT22;1608;50.860;13.466;2022-09-09T13:10:19;23.70;99.90
3194;DHT22;1608;50.860;13.466;2022-09-09T13:12:48;23.90;99.90
3194;DHT22;1608;50.860;13.466;2022-09-09T13:15:19;24.00;99.90
3194;DHT22;1608;50.860;13.466;2022-09-09T13:17:52;24.00;99.90
3194;DHT22;1608;50.860;13.466;2022-09-09T13:20:21;24.00;99.90
3194;DHT22;1608;50.860;13.466;2022-09-09T13:22:51;24.00;99.90
3194;DHT22;1608;50.860;13.466;2022-09-09T13:25:22;23.90;99.90
3194;DHT22;1608;50.860;13.466;2022-09-09T13:27:57;23.80;99.90
3194;DHT22;1608;50.860;13.466;2022-09-09T13:30:27;23.70;98.80
3194;DHT22;1608;50.860;13.466;2022-09-09T13:35:47;23.70;98.90
3194;DHT22;1608;50.860;13.466;2022-09-09T13:38:16;23.40;99.80
3194;DHT22;1608;50.860;13.466;2022-09-09T13:40:52;23.30;99.90
3194;DHT22;1608;50.860;13.466;2022-09-09T13:43:22;23.40;99.90
3194;DHT22;1608;50.860;13.466;2022-09-09T13:45:54;23.50;99.90
3194;DHT22;1608;50.860;13.466;2022-09-09T13:48:21;23.30;99.90
3194;DHT22;1608;50.860;13.466;2022-09-09T13:50:55;23.30;99.90
3194;DHT22;1608;50.860;13.466;2022-09-09T13:53:23;23.30;99.90
3194;DHT22;1608;50.860;13.466;2022-09-09T13:55:50;23.20;99.90
3194;DHT22;1608;50.860;13.466;2022-09-09T13:58:18;23.20;99.90
3194;DHT22;1608;50.860;13.466;2022-09-09T14:00:45;23.30;99.90
3194;DHT22;1608;50.860;13.466;2022-09-09T14:03:12;23.40;99.90
3194;DHT22;1608;50.860;13.466;2022-09-09T14:05:39;23.40;99.90
3194;DHT22;1608;50.860;13.466;2022-09-09T14:08:14;23.40;99.90
3194;DHT22;1608;50.860;13.466;2022-09-09T14:10:42;23.50;99.90
3194;DHT22;1608;50.860;13.466;2022-09-09T14:13:09;23.60;99.90
3194;DHT22;1608;50.860;13.466;2022-09-09T14:15:37;23.60;99.90
3194;DHT22;1608;50.860;13.466;2022-09-09T14:18:04;23.70;99.90
3194;DHT22;1608;50.860;13.466;2022-09-09T14:20:31;23.70;99.90
3194;DHT22;1608;50.860;13.466;2022-09-09T14:22:57;23.80;99.90
3194;DHT22;1608;50.860;13.466;2022-09-09T14:25:24;24.00;99.90
3194;DHT22;1608;50.860;13.466;2022-09-09T14:27:52;24.10;99.90
3194;DHT22;1608;50.860;13.466;2022-09-09T14:30:19;24.30;99.90
3194;DHT22;1608;50.860;13.466;2022-09-09T14:32:46;24.30;99.90
3194;DHT22;1608;50.860;13.466;2022-09-09T14:35:12;24.30;99.90
3194;DHT22;1608;50.860;13.466;2022-09-09T14:37:39;24.10;99.10
3194;DHT22;1608;50.860;13.466;2022-09-09T14:40:06;24.10;99.80
3194;DHT22;1608;50.860;13.466;2022-09-09T14:42:33;24.10;99.90
3194;DHT22;1608;50.860;13.466;2022-09-09T14:45:02;24.00;99.30
3194;DHT22;1608;50.860;13.466;2022-09-09T14:47:29;23.90;99.70
3194;DHT22;1608;50.860;13.466;2022-09-09T14:49:55;23.80;99.90
3194;DHT22;1608;50.860;13.466;2022-09-09T14:52:22;23.80;99.90
3194;DHT22;1608;50.860;13.466;2022-09-09T14:54:49;23.70;99.90
3194;DHT22;1608;50.860;13.466;2022-09-09T14:57:16;23.70;99.90
3194;DHT22;1608;50.860;13.466;2022-09-09T14:59:42;23.60;99.90
3194;DHT22;1608;50.860;13.466;2022-09-09T15:02:10;23.60;99.90
3194;DHT22;1608;50.860;13.466;2022-09-09T15:04:38;23.50;99.90
3194;DHT22;1608;50.860;13.466;2022-09-09T15:07:05;23.50;99.90
3194;DHT22;1608;50.860;13.466;2022-09-09T15:09:31;23.50;99.50
3194;DHT22;1608;50.860;13.466;2022-09-09T15:11:59;23.50;99.30
3194;DHT22;1608;50.860;13.466;2022-09-09T15:14:27;23.50;98.90
3194;DHT22;1608;50.860;13.466;2022-09-09T15:16:53;23.50;98.50
3194;DHT22;1608;50.860;13.466;2022-09-09T15:19:21;23.50;98.90
3194;DHT22;1608;50.860;13.466;2022-09-09T15:21:48;23.50;99.20
3194;DHT22;1608;50.860;13.466;2022-09-09T15:24:15;23.50;99.40
3194;DHT22;1608;50.860;13.466;2022-09-09T15:26:42;23.40;99.50
3194;DHT22;1608;50.860;13.466;2022-09-09T15:29:09;23.30;98.80
3194;DHT22;1608;50.860;13.466;2022-09-09T15:31:36;23.10;99.40
3194;DHT22;1608;50.860;13.466;2022-09-09T15:34:04;23.00;99.40
3194;DHT22;1608;50.860;13.466;2022-09-09T15:36:34;23.00;99.90
3194;DHT22;1608;50.860;13.466;2022-09-09T15:39:02;23.00;99.90
3194;DHT22;1608;50.860;13.466;2022-09-09T15:41:29;23.00;99.90
3194;DHT22;1608;50.860;13.466;2022-09-09T15:43:57;23.00;99.90
3194;DHT22;1608;50.860;13.466;2022-09-09T15:46:28;22.90;99.90
3194;DHT22;1608;50.860;13.466;2022-09-09T15:48:56;22.90;99.90
3194;DHT22;1608;50.860;13.466;2022-09-09T15:51:24;22.90;99.90
3194;DHT22;1608;50.860;13.466;2022-09-09T15:53:56;22.50;99.90
3194;DHT22;1608;50.860;13.466;2022-09-09T15:56:23;22.80;99.90
3194;DHT22;1608;50.860;13.466;2022-09-09T15:58:50;22.70;99.90
3194;DHT22;1608;50.860;13.466;2022-09-09T16:01:18;22.70;99.90
3194;DHT22;1608;50.860;13.466;2022-09-09T16:03:45;22.70;99.90
3194;DHT22;1608;50.860;13.466;2022-09-09T16:06:12;22.60;99.90
3194;DHT22;1608;50.860;13.466;2022-09-09T16:08:41;22.50;99.90
3194;DHT22;1608;50.860;13.466;2022-09-09T16:11:12;22.30;99.90
3194;DHT22;1608;50.860;13.466;2022-09-09T16:13:40;22.30;99.90
3194;DHT22;1608;50.860;13.466;2022-09-09T16:16:07;22.20;99.90
3194;DHT22;1608;50.860;13.466;2022-09-09T16:18:36;22.20;99.90